sensor_id;sensor_type;location;lat;lon;timestamp;pressure;altitude;pressure_sealevel;temperature;humidity
57799;BME280;43626;53.866;30.298;2023-12-20T00:02:16;1011.2;;;5.1;77.3
57799;BME280;43626;53.866;30.298;2023-12-20T00:06:38;1011.2;;;5.2;77.3
57799;BME280;43626;53.866;30.298;2023-12-20T00:11:38;1011.1;;;5.2;77.2
57799;BME280;43626;53.866;30.298;2023-12-20T00:16:38;1011;;;5.2;77.2
57799;BME280;43626;53.866;30.298;2023-12-20T00:21:46;1011;;;5.2;77.3
57799;BME280;43626;53.866;30.298;2023-12-20T00:27:16;1010.8;;;5.2;77.3
57799;BME280;43626;53.866;30.298;2023-12-20T00:31:46;1010.7;;;5.2;77.3
57799;BME280;43626;53.866;30.298;2023-12-20T00:36:58;1010.8;;;5.2;77.1
57799;BME280;43626;53.866;30.298;2023-12-20T00:42:16;1010.8;;;5.2;77
57799;BME280;43626;53.866;30.298;2023-12-20T00:47:16;1010.7;;;5.1;76.9
57799;BME280;43626;53.866;30.298;2023-12-20T00:52:14;1010.7;;;5.1;76.9
57799;BME280;43626;53.866;30.298;2023-12-20T00:56:54;1010.6;;;5.2;76.9
57799;BME280;43626;53.866;30.298;2023-12-20T01:01:48;1010.5;;;5.2;77
57799;BME280;43626;53.866;30.298;2023-12-20T01:06:30;1010.4;;;5.2;76.9
57799;BME280;43626;53.866;30.298;2023-12-20T01:11:38;1010.4;;;5.2;76.9
57799;BME280;43626;53.866;30.298;2023-12-20T01:17:16;1010.5;;;5.2;76.8
57799;BME280;43626;53.866;30.298;2023-12-20T01:21:56;1010.5;;;5.2;76.8
57799;BME280;43626;53.866;30.298;2023-12-20T01:27:06;1010.4;;;5.2;76.7
57799;BME280;43626;53.866;30.298;2023-12-20T01:32:06;1010.4;;;5.2;76.7
57799;BME280;43626;53.866;30.298;2023-12-20T01:37:06;1010.4;;;5.2;76.7
57799;BME280;43626;53.866;30.298;2023-12-20T01:42:14;1010.3;;;5.2;76.6
57799;BME280;43626;53.866;30.298;2023-12-20T01:46:30;1010.2;;;5.2;76.5
57799;BME280;43626;53.866;30.298;2023-12-20T01:52:16;1010.2;;;5.2;76.6
57799;BME280;43626;53.866;30.298;2023-12-20T01:56:44;1010.1;;;5.2;76.5
57799;BME280;43626;53.866;30.298;2023-12-20T02:01:30;1009.9;;;5.1;76.6
57799;BME280;43626;53.866;30.298;2023-12-20T02:07:16;1009.8;;;5.1;76.6
57799;BME280;43626;53.866;30.298;2023-12-20T02:11:49;1009.7;;;5.1;76.7
57799;BME280;43626;53.866;30.298;2023-12-20T02:16:39;1009.7;;;5.1;76.8
57799;BME280;43626;53.866;30.298;2023-12-20T02:22:12;1009.6;;;5.1;76.7
57799;BME280;43626;53.866;30.298;2023-12-20T02:27:07;1009.6;;;5.1;76.8
57799;BME280;43626;53.866;30.298;2023-12-20T02:32:16;1009.6;;;5.1;76.7
57799;BME280;43626;53.866;30.298;2023-12-20T02:36:38;1009.6;;;5;76.7
57799;BME280;43626;53.866;30.298;2023-12-20T02:41:56;1009.6;;;5.1;76.6
57799;BME280;43626;53.866;30.298;2023-12-20T02:47:06;1009.5;;;5.1;76.6
57799;BME280;43626;53.866;30.298;2023-12-20T02:52:16;1009.5;;;5.1;76.6
57799;BME280;43626;53.866;30.298;2023-12-20T02:57:09;1009.5;;;5.2;76.6
57799;BME280;43626;53.866;30.298;2023-12-20T03:02:06;1009.4;;;5.2;76.4
57799;BME280;43626;53.866;30.298;2023-12-20T03:06:48;1009.3;;;5.3;76.2
57799;BME280;43626;53.866;30.298;2023-12-20T03:12:07;1009.2;;;5.3;76.1
57799;BME280;43626;53.866;30.298;2023-12-20T03:17:16;1009.2;;;5.3;76
57799;BME280;43626;53.866;30.298;2023-12-20T03:21:38;1009.1;;;5.3;75.7
57799;BME280;43626;53.866;30.298;2023-12-20T03:26:30;1009.1;;;5.2;75.8
57799;BME280;43626;53.866;30.298;2023-12-20T03:31:38;1009.1;;;5.2;75.8
57799;BME280;43626;53.866;30.298;2023-12-20T03:36:32;1009.1;;;5.2;75.8
57799;BME280;43626;53.866;30.298;2023-12-20T03:42:16;1009;;;5.2;76
57799;BME280;43626;53.866;30.298;2023-12-20T03:47:07;1009.1;;;5.2;76
57799;BME280;43626;53.866;30.298;2023-12-20T03:51:58;1009.1;;;5.2;76.1
57799;BME280;43626;53.866;30.298;2023-12-20T03:56:36;1009;;;5.2;76
57799;BME280;43626;53.866;30.298;2023-12-20T04:01:31;1009;;;5.2;76
57799;BME280;43626;53.866;30.298;2023-12-20T04:07:17;1008.9;;;5.2;76
57799;BME280;43626;53.866;30.298;2023-12-20T04:11:54;1008.9;;;5.2;76
57799;BME280;43626;53.866;30.298;2023-12-20T04:17:07;1008.9;;;5.2;76
57799;BME280;43626;53.866;30.298;2023-12-20T04:21:39;1008.8;;;5.1;76
57799;BME280;43626;53.866;30.298;2023-12-20T04:26:41;1008.8;;;5.1;76
57799;BME280;43626;53.866;30.298;2023-12-20T04:32:16;1008.8;;;5.1;76.2
57799;BME280;43626;53.866;30.298;2023-12-20T04:37:07;1008.8;;;5.1;76.4
57799;BME280;43626;53.866;30.298;2023-12-20T04:42:07;1008.8;;;5.2;76.5
57799;BME280;43626;53.866;30.298;2023-12-20T04:46:44;1008.8;;;5.2;76.3
57799;BME280;43626;53.866;30.298;2023-12-20T04:52:07;1008.8;;;5.2;76.1
57799;BME280;43626;53.866;30.298;2023-12-20T04:57:17;1008.8;;;5.2;76.1
57799;BME280;43626;53.866;30.298;2023-12-20T05:01:31;1008.9;;;5.2;76.1
57799;BME280;43626;53.866;30.298;2023-12-20T05:06:37;1008.9;;;5.2;76.1
57799;BME280;43626;53.866;30.298;2023-12-20T05:11:39;1008.9;;;5.1;76.1
57799;BME280;43626;53.866;30.298;2023-12-20T05:17:07;1008.8;;;5.1;76.2
57799;BME280;43626;53.866;30.298;2023-12-20T05:22:07;1008.9;;;5.1;76.3
57799;BME280;43626;53.866;30.298;2023-12-20T05:27:07;1008.8;;;5.1;76.1
57799;BME280;43626;53.866;30.298;2023-12-20T05:32:07;1008.8;;;5.1;76.2
57799;BME280;43626;53.866;30.298;2023-12-20T05:36:41;1008.9;;;5.2;76.4
57799;BME280;43626;53.866;30.298;2023-12-20T05:42:07;1008.8;;;5.2;76.3
57799;BME280;43626;53.866;30.298;2023-12-20T05:46:41;1008.8;;;5.1;76.4
57799;BME280;43626;53.866;30.298;2023-12-20T05:51:55;1008.8;;;5.1;76.4
57799;BME280;43626;53.866;30.298;2023-12-20T05:56:31;1008.9;;;5.2;76.4
57799;BME280;43626;53.866;30.298;2023-12-20T06:01:31;1008.9;;;5.2;76.3
57799;BME280;43626;53.866;30.298;2023-12-20T06:06:41;1008.8;;;5.2;76.1
57799;BME280;43626;53.866;30.298;2023-12-20T06:11:49;1008.9;;;5.2;75.8
57799;BME280;43626;53.866;30.298;2023-12-20T06:17:07;1008.8;;;5.2;75.6
57799;BME280;43626;53.866;30.298;2023-12-20T06:21:59;1008.9;;;5.2;75.5
57799;BME280;43626;53.866;30.298;2023-12-20T06:26:31;1009;;;5.2;75.8
57799;BME280;43626;53.866;30.298;2023-12-20T06:31:57;1009;;;5.2;75.7
57799;BME280;43626;53.866;30.298;2023-12-20T06:37:17;1009.1;;;5.3;75.6
57799;BME280;43626;53.866;30.298;2023-12-20T06:41:57;1009.1;;;5.4;75.4
57799;BME280;43626;53.866;30.298;2023-12-20T06:46:31;1009.1;;;5.4;75.3
57799;BME280;43626;53.866;30.298;2023-12-20T06:51:39;1009.2;;;5.4;75.3
57799;BME280;43626;53.866;30.298;2023-12-20T06:57:07;1009.2;;;5.4;75.2
57799;BME280;43626;53.866;30.298;2023-12-20T07:02:15;1009.2;;;5.3;75.2
57799;BME280;43626;53.866;30.298;2023-12-20T07:06:59;1009.3;;;5.3;75.1
57799;BME280;43626;53.866;30.298;2023-12-20T07:12:07;1009.1;;;5.3;75
57799;BME280;43626;53.866;30.298;2023-12-20T07:16:31;1009.2;;;5.3;75
57799;BME280;43626;53.866;30.298;2023-12-20T07:21:39;1009.3;;;5.4;75.1
57799;BME280;43626;53.866;30.298;2023-12-20T07:27:17;1009.3;;;5.4;75.2
57799;BME280;43626;53.866;30.298;2023-12-20T07:31:31;1009.4;;;5.5;75.1
57799;BME280;43626;53.866;30.298;2023-12-20T07:36:31;1009.3;;;5.5;75
57799;BME280;43626;53.866;30.298;2023-12-20T07:41:31;1009.4;;;5.6;74.8
57799;BME280;43626;53.866;30.298;2023-12-20T07:47:05;1009.3;;;5.6;74.6
57799;BME280;43626;53.866;30.298;2023-12-20T07:52:13;1009.3;;;5.5;74.6
57799;BME280;43626;53.866;30.298;2023-12-20T07:57:17;1009.4;;;5.5;74.5
57799;BME280;43626;53.866;30.298;2023-12-20T08:01:57;1009.5;;;5.5;74.4
57799;BME280;43626;53.866;30.298;2023-12-20T08:06:47;1009.5;;;5.5;74.4
57799;BME280;43626;53.866;30.298;2023-12-20T08:12:01;1009.4;;;5.6;74.3
57799;BME280;43626;53.866;30.298;2023-12-20T08:17:17;1009.4;;;5.6;74.4
57799;BME280;43626;53.866;30.298;2023-12-20T08:21:31;1009.5;;;5.6;74.4
57799;BME280;43626;53.866;30.298;2023-12-20T08:26:31;1009.5;;;5.6;74.4
57799;BME280;43626;53.866;30.298;2023-12-20T08:31:50;1009.5;;;5.6;74.4
57799;BME280;43626;53.866;30.298;2023-12-20T08:37:09;1009.4;;;5.6;74.5
57799;BME280;43626;53.866;30.298;2023-12-20T08:42:17;1009.4;;;5.6;74.4
57799;BME280;43626;53.866;30.298;2023-12-20T08:46:31;1009.3;;;5.6;74.2
57799;BME280;43626;53.866;30.298;2023-12-20T08:52:05;1009.3;;;5.7;73.9
57799;BME280;43626;53.866;30.298;2023-12-20T08:56:57;1009.3;;;5.7;73.9
57799;BME280;43626;53.866;30.298;2023-12-20T09:01:39;1009.3;;;5.7;73.8
57799;BME280;43626;53.866;30.298;2023-12-20T09:07:07;1009.3;;;5.7;73.9
57799;BME280;43626;53.866;30.298;2023-12-20T09:11:39;1009.3;;;5.8;73.9
57799;BME280;43626;53.866;30.298;2023-12-20T09:16:31;1009.2;;;5.8;73.8
57799;BME280;43626;53.866;30.298;2023-12-20T09:21:31;1009.2;;;5.8;73.7
57799;BME280;43626;53.866;30.298;2023-12-20T09:27:07;1009.2;;;5.8;73.7
57799;BME280;43626;53.866;30.298;2023-12-20T09:32:17;1009.2;;;5.7;73.7
57799;BME280;43626;53.866;30.298;2023-12-20T09:36:57;1009.2;;;5.7;73.8
57799;BME280;43626;53.866;30.298;2023-12-20T09:42:07;1009.2;;;5.7;73.9
57799;BME280;43626;53.866;30.298;2023-12-20T09:46:45;1009.2;;;5.7;73.9
57799;BME280;43626;53.866;30.298;2023-12-20T09:51:51;1009.2;;;5.7;74
57799;BME280;43626;53.866;30.298;2023-12-20T09:57:19;1009.1;;;5.8;73.9
57799;BME280;43626;53.866;30.298;2023-12-20T10:01:47;1009.1;;;5.9;73.8
57799;BME280;43626;53.866;30.298;2023-12-20T10:06:31;1009.1;;;5.9;73.7
57799;BME280;43626;53.866;30.298;2023-12-20T10:11:31;1009.1;;;5.9;73.6
57799;BME280;43626;53.866;30.298;2023-12-20T10:17:07;1009;;;6;73.5
57799;BME280;43626;53.866;30.298;2023-12-20T10:22:17;1009;;;6;73.4
57799;BME280;43626;53.866;30.298;2023-12-20T10:27:02;1009;;;6;73.3
57799;BME280;43626;53.866;30.298;2023-12-20T10:31:33;1009;;;6;73
57799;BME280;43626;53.866;30.298;2023-12-20T10:36:59;1009.1;;;6;72.9
57799;BME280;43626;53.866;30.298;2023-12-20T10:41:31;1009.1;;;5.9;72.9
57799;BME280;43626;53.866;30.298;2023-12-20T10:46:55;1009.1;;;5.9;72.8
57799;BME280;43626;53.866;30.298;2023-12-20T10:51:31;1009.1;;;5.9;72.9
57799;BME280;43626;53.866;30.298;2023-12-20T10:56:32;1009;;;5.8;73.2
57799;BME280;43626;53.866;30.298;2023-12-20T11:01:49;1008.9;;;5.9;73.3
57799;BME280;43626;53.866;30.298;2023-12-20T11:07:08;1008.9;;;5.8;73.3
57799;BME280;43626;53.866;30.298;2023-12-20T11:12:20;1008.9;;;5.9;73.2
57799;BME280;43626;53.866;30.298;2023-12-20T11:17:05;1008.8;;;5.9;73.1
57799;BME280;43626;53.866;30.298;2023-12-20T11:21:47;1008.8;;;5.9;73.1
57799;BME280;43626;53.866;30.298;2023-12-20T11:26:59;1008.8;;;5.9;72.9
57799;BME280;43626;53.866;30.298;2023-12-20T11:31:57;1008.8;;;5.9;72.8
57799;BME280;43626;53.866;30.298;2023-12-20T11:37:17;1008.8;;;5.9;72.6
57799;BME280;43626;53.866;30.298;2023-12-20T11:42:09;1008.8;;;5.9;72.6
57799;BME280;43626;53.866;30.298;2023-12-20T11:47:13;1008.8;;;5.9;72.5
57799;BME280;43626;53.866;30.298;2023-12-20T11:52:07;1008.8;;;6;72.6
57799;BME280;43626;53.866;30.298;2023-12-20T11:56:39;1008.9;;;6;72.8
57799;BME280;43626;53.866;30.298;2023-12-20T12:01:58;1008.9;;;6;72.7
57799;BME280;43626;53.866;30.298;2023-12-20T12:07:17;1008.8;;;6;72.7
57799;BME280;43626;53.866;30.298;2023-12-20T12:11:59;1008.6;;;6;72.6
57799;BME280;43626;53.866;30.298;2023-12-20T12:17:09;1008.6;;;6;72.6
57799;BME280;43626;53.866;30.298;2023-12-20T12:22:04;1008.5;;;6;72.5
57799;BME280;43626;53.866;30.298;2023-12-20T12:27:17;1008.5;;;5.9;72.6
57799;BME280;43626;53.866;30.298;2023-12-20T12:31:39;1008.4;;;5.9;72.7
57799;BME280;43626;53.866;30.298;2023-12-20T12:36:49;1008.3;;;5.8;72.7
57799;BME280;43626;53.866;30.298;2023-12-20T12:42:19;1008.3;;;5.8;72.8
57799;BME280;43626;53.866;30.298;2023-12-20T12:46:31;1008.3;;;5.8;72.7
57799;BME280;43626;53.866;30.298;2023-12-20T12:52:19;1008.3;;;5.8;72.8
57799;BME280;43626;53.866;30.298;2023-12-20T12:57:17;1008.3;;;5.8;72.8
57799;BME280;43626;53.866;30.298;2023-12-20T13:01:59;1008.3;;;5.8;72.7
57799;BME280;43626;53.866;30.298;2023-12-20T13:06:59;1008.4;;;5.8;72.7
57799;BME280;43626;53.866;30.298;2023-12-20T13:11:31;1008.4;;;5.8;72.8
57799;BME280;43626;53.866;30.298;2023-12-20T13:16:51;1008.4;;;5.7;72.8
57799;BME280;43626;53.866;30.298;2023-12-20T13:21:49;1008.4;;;5.7;72.7
57799;BME280;43626;53.866;30.298;2023-12-20T13:26:31;1008.4;;;5.6;72.8
57799;BME280;43626;53.866;30.298;2023-12-20T13:32:09;1008.5;;;5.6;72.8
57799;BME280;43626;53.866;30.298;2023-12-20T13:36:47;1008.5;;;5.5;73.2
57799;BME280;43626;53.866;30.298;2023-12-20T13:42:17;1008.5;;;5.4;73.4
57799;BME280;43626;53.866;30.298;2023-12-20T13:47:19;1008.5;;;5.3;73.7
57799;BME280;43626;53.866;30.298;2023-12-20T13:51:33;1008.5;;;5.3;73.9
57799;BME280;43626;53.866;30.298;2023-12-20T13:56:59;1008.5;;;5.3;74
57799;BME280;43626;53.866;30.298;2023-12-20T14:01:39;1008.4;;;5.3;74
57799;BME280;43626;53.866;30.298;2023-12-20T14:07:07;1008.4;;;5.3;74
57799;BME280;43626;53.866;30.298;2023-12-20T14:11:31;1008.3;;;5.2;74.2
57799;BME280;43626;53.866;30.298;2023-12-20T14:16:31;1008.2;;;5.2;74.4
57799;BME280;43626;53.866;30.298;2023-12-20T14:22:17;1008.2;;;5.2;74.3
57799;BME280;43626;53.866;30.298;2023-12-20T14:26:37;1008.1;;;5.2;74.1
57799;BME280;43626;53.866;30.298;2023-12-20T14:31:33;1008.1;;;5.2;74.1
57799;BME280;43626;53.866;30.298;2023-12-20T14:37:07;1008.1;;;5.2;74
57799;BME280;43626;53.866;30.298;2023-12-20T14:42:07;1008.1;;;5.2;74.1
57799;BME280;43626;53.866;30.298;2023-12-20T14:47:19;1008.1;;;5.2;74.2
57799;BME280;43626;53.866;30.298;2023-12-20T14:51:57;1008;;;5.2;74.1
57799;BME280;43626;53.866;30.298;2023-12-20T14:56:33;1008;;;5.3;74.1
57799;BME280;43626;53.866;30.298;2023-12-20T15:01:31;1007.9;;;5.3;74
57799;BME280;43626;53.866;30.298;2023-12-20T15:06:57;1007.8;;;5.3;74
57799;BME280;43626;53.866;30.298;2023-12-20T15:11:51;1007.8;;;5.2;74
57799;BME280;43626;53.866;30.298;2023-12-20T15:16:47;1007.7;;;5.2;74.3
57799;BME280;43626;53.866;30.298;2023-12-20T15:22:17;1007.7;;;5.2;74.3
57799;BME280;43626;53.866;30.298;2023-12-20T15:27:19;1007.7;;;5.2;74.1
57799;BME280;43626;53.866;30.298;2023-12-20T15:32:07;1007.6;;;5.2;74.2
57799;BME280;43626;53.866;30.298;2023-12-20T15:37:05;1007.6;;;5.2;74
57799;BME280;43626;53.866;30.298;2023-12-20T15:41:57;1007.6;;;5.2;74.1
57799;BME280;43626;53.866;30.298;2023-12-20T15:47:19;1007.5;;;5.3;74.1
57799;BME280;43626;53.866;30.298;2023-12-20T15:51:31;1007.5;;;5.3;73.9
57799;BME280;43626;53.866;30.298;2023-12-20T15:57:07;1007.5;;;5.3;73.9
57799;BME280;43626;53.866;30.298;2023-12-20T16:02:15;1007.4;;;5.3;73.8
57799;BME280;43626;53.866;30.298;2023-12-20T16:06:31;1007.3;;;5.2;73.9
57799;BME280;43626;53.866;30.298;2023-12-20T16:12:17;1007.2;;;5.2;73.8
57799;BME280;43626;53.866;30.298;2023-12-20T16:16:33;1007.2;;;5.1;73.9
57799;BME280;43626;53.866;30.298;2023-12-20T16:22:19;1007.2;;;5.1;73.8
57799;BME280;43626;53.866;30.298;2023-12-20T16:27:19;1007.1;;;5.1;74.1
57799;BME280;43626;53.866;30.298;2023-12-20T16:31:57;1007.1;;;5;74.1
57799;BME280;43626;53.866;30.298;2023-12-20T16:36:33;1007.1;;;4.9;74.3
57799;BME280;43626;53.866;30.298;2023-12-20T16:42:17;1007.1;;;4.9;74.5
57799;BME280;43626;53.866;30.298;2023-12-20T16:46:31;1007.1;;;4.9;74.6
57799;BME280;43626;53.866;30.298;2023-12-20T16:51:41;1007.1;;;4.9;74.7
57799;BME280;43626;53.866;30.298;2023-12-20T16:56:45;1007;;;4.9;74.7
57799;BME280;43626;53.866;30.298;2023-12-20T17:01:59;1007;;;4.9;74.7
57799;BME280;43626;53.866;30.298;2023-12-20T17:06:57;1007;;;4.9;74.7
57799;BME280;43626;53.866;30.298;2023-12-20T17:12:07;1007;;;4.8;74.7
57799;BME280;43626;53.866;30.298;2023-12-20T17:17:19;1007;;;4.8;74.8
57799;BME280;43626;53.866;30.298;2023-12-20T17:21:47;1007;;;4.8;74.6
57799;BME280;43626;53.866;30.298;2023-12-20T17:26:31;1006.9;;;4.7;74.8
57799;BME280;43626;53.866;30.298;2023-12-20T17:31:39;1006.9;;;4.7;74.9
57799;BME280;43626;53.866;30.298;2023-12-20T17:36:57;1006.8;;;4.7;75.1
57799;BME280;43626;53.866;30.298;2023-12-20T17:41:41;1006.8;;;4.6;75.2
57799;BME280;43626;53.866;30.298;2023-12-20T17:46:39;1006.8;;;4.6;75.3
57799;BME280;43626;53.866;30.298;2023-12-20T17:52:19;1006.8;;;4.6;75.3
57799;BME280;43626;53.866;30.298;2023-12-20T17:56:49;1006.7;;;4.6;75.2
57799;BME280;43626;53.866;30.298;2023-12-20T18:02:15;1006.7;;;4.6;75.2
57799;BME280;43626;53.866;30.298;2023-12-20T18:07:17;1006.7;;;4.6;75.2
57799;BME280;43626;53.866;30.298;2023-12-20T18:11:31;1006.7;;;4.6;75
57799;BME280;43626;53.866;30.298;2023-12-20T18:16:57;1006.6;;;4.6;75
57799;BME280;43626;53.866;30.298;2023-12-20T18:22:09;1006.6;;;4.6;74.9
57799;BME280;43626;53.866;30.298;2023-12-20T18:26:49;1006.6;;;4.6;74.9
57799;BME280;43626;53.866;30.298;2023-12-20T18:31:47;1006.5;;;4.6;74.8
57799;BME280;43626;53.866;30.298;2023-12-20T18:36:47;1006.5;;;4.6;74.7
57799;BME280;43626;53.866;30.298;2023-12-20T18:42:19;1006.4;;;4.5;74.7
57799;BME280;43626;53.866;30.298;2023-12-20T18:46:57;1006.4;;;4.5;74.8
57799;BME280;43626;53.866;30.298;2023-12-20T18:52:17;1006.3;;;4.5;74.9
57799;BME280;43626;53.866;30.298;2023-12-20T18:57:05;1006.2;;;4.5;74.7
57799;BME280;43626;53.866;30.298;2023-12-20T19:01:39;1006.1;;;4.5;74.7
57799;BME280;43626;53.866;30.298;2023-12-20T19:06:31;1006.1;;;4.5;74.6
57799;BME280;43626;53.866;30.298;2023-12-20T19:11:31;1006;;;4.5;74.4
57799;BME280;43626;53.866;30.298;2023-12-20T19:16:31;1006;;;4.5;74
57799;BME280;43626;53.866;30.298;2023-12-20T19:21:55;1005.9;;;4.5;73.9
57799;BME280;43626;53.866;30.298;2023-12-20T19:26:31;1005.8;;;4.6;74
57799;BME280;43626;53.866;30.298;2023-12-20T19:31:57;1005.7;;;4.6;73.7
57799;BME280;43626;53.866;30.298;2023-12-20T19:36:59;1005.6;;;4.6;73.4
57799;BME280;43626;53.866;30.298;2023-12-20T19:42:09;1005.6;;;4.6;72.8
57799;BME280;43626;53.866;30.298;2023-12-20T19:46:53;1005.5;;;4.6;72.4
57799;BME280;43626;53.866;30.298;2023-12-20T19:52:07;1005.5;;;4.6;72.2
57799;BME280;43626;53.866;30.298;2023-12-20T19:56:31;1005.5;;;4.6;72.2
57799;BME280;43626;53.866;30.298;2023-12-20T20:01:31;1005.4;;;4.5;72.3
57799;BME280;43626;53.866;30.298;2023-12-20T20:06:31;1005.3;;;4.4;72.6
57799;BME280;43626;53.866;30.298;2023-12-20T20:11:57;1005.1;;;4.3;72.7
57799;BME280;43626;53.866;30.298;2023-12-20T20:16:37;1005.1;;;4.3;72.8
57799;BME280;43626;53.866;30.298;2023-12-20T20:22:19;1005.1;;;4.2;73
57799;BME280;43626;53.866;30.298;2023-12-20T20:26:51;1005.1;;;4.3;73
57799;BME280;43626;53.866;30.298;2023-12-20T20:32:19;1005.1;;;4.3;72.9
57799;BME280;43626;53.866;30.298;2023-12-20T20:37:17;1005.1;;;4.2;72.8
57799;BME280;43626;53.866;30.298;2023-12-20T20:41:57;1005.1;;;4.2;72.6
57799;BME280;43626;53.866;30.298;2023-12-20T20:46:57;1005.1;;;4.1;72.7
57799;BME280;43626;53.866;30.298;2023-12-20T20:51:31;1005.1;;;4.1;73
57799;BME280;43626;53.866;30.298;2023-12-20T20:56:47;1005.1;;;4.2;72.9
57799;BME280;43626;53.866;30.298;2023-12-20T21:02:07;1005;;;4.2;72.8
57799;BME280;43626;53.866;30.298;2023-12-20T21:07:09;1005;;;4.2;72.9
57799;BME280;43626;53.866;30.298;2023-12-20T21:11:39;1004.9;;;4.2;73
57799;BME280;43626;53.866;30.298;2023-12-20T21:16:43;1004.9;;;4.3;73.5
57799;BME280;43626;53.866;30.298;2023-12-20T21:21:33;1004.9;;;4.3;73.2
57799;BME280;43626;53.866;30.298;2023-12-20T21:27:19;1004.8;;;4.3;73.2
57799;BME280;43626;53.866;30.298;2023-12-20T21:31:51;1004.8;;;4.3;73
57799;BME280;43626;53.866;30.298;2023-12-20T21:36:39;1004.7;;;4.3;72.9
57799;BME280;43626;53.866;30.298;2023-12-20T21:41:59;1004.7;;;4.4;72.7
57799;BME280;43626;53.866;30.298;2023-12-20T21:46:47;1004.6;;;4.4;72.6
57799;BME280;43626;53.866;30.298;2023-12-20T21:52:17;1004.6;;;4.4;72.6
57799;BME280;43626;53.866;30.298;2023-12-20T21:56:47;1004.5;;;4.5;72.7
57799;BME280;43626;53.866;30.298;2023-12-20T22:01:31;1004.5;;;4.5;72.7
57799;BME280;43626;53.866;30.298;2023-12-20T22:06:57;1004.5;;;4.5;72.7
57799;BME280;43626;53.866;30.298;2023-12-20T22:11:51;1004.4;;;4.5;72.8
57799;BME280;43626;53.866;30.298;2023-12-20T22:17:17;1004.4;;;4.5;72.8
57799;BME280;43626;53.866;30.298;2023-12-20T22:22:17;1004.4;;;4.5;72.9
57799;BME280;43626;53.866;30.298;2023-12-20T22:26:31;1004.4;;;4.4;72.9
57799;BME280;43626;53.866;30.298;2023-12-20T22:31:39;1004.4;;;4.4;72.9
57799;BME280;43626;53.866;30.298;2023-12-20T22:36:49;1004.4;;;4.4;72.7
57799;BME280;43626;53.866;30.298;2023-12-20T22:42:07;1004.4;;;4.3;72.4
57799;BME280;43626;53.866;30.298;2023-12-20T22:46:31;1004.4;;;4.2;72.3
57799;BME280;43626;53.866;30.298;2023-12-20T22:51:39;1004.5;;;4.1;72.3
57799;BME280;43626;53.866;30.298;2023-12-20T22:56:55;1004.5;;;4.1;72.4
57799;BME280;43626;53.866;30.298;2023-12-20T23:02:07;1004.5;;;4;72.3
57799;BME280;43626;53.866;30.298;2023-12-20T23:07:17;1004.6;;;3.9;72.2
57799;BME280;43626;53.866;30.298;2023-12-20T23:12:09;1004.6;;;3.8;72.3
57799;BME280;43626;53.866;30.298;2023-12-20T23:16:49;1004.6;;;3.8;72.4
57799;BME280;43626;53.866;30.298;2023-12-20T23:21:31;1004.5;;;3.7;72.2
57799;BME280;43626;53.866;30.298;2023-12-20T23:26:31;1004.5;;;3.6;72.3
57799;BME280;43626;53.866;30.298;2023-12-20T23:31:33;1004.6;;;3.7;72.5
57799;BME280;43626;53.866;30.298;2023-12-20T23:36:37;1004.5;;;3.7;72.5
57799;BME280;43626;53.866;30.298;2023-12-20T23:41:39;1004.6;;;3.8;72.1
57799;BME280;43626;53.866;30.298;2023-12-20T23:46:41;1004.6;;;3.9;71.8
57799;BME280;43626;53.866;30.298;2023-12-20T23:52:07;1004.6;;;3.9;71.9
57799;BME280;43626;53.866;30.298;2023-12-20T23:57:20;1004.5;;;4;71.7
